Time;durP1;ratioP1;P1;durP2;ratioP2;P2;SDS_P1;SDS_P2;PMS_P1;PMS_P2;Temp;Humidity;BMP_temperature;BMP_pressure;BME280_temperature;BME280_humidity;BME280_pressure;Samples;Min_cycle;Max_cycle;Signal;HPM_P1;HPM_P2
2021/03/29 00:01:51;;;;;;;;;;;22.10;27.40;;;;;;491528;240;1329;-70
2021/03/29 00:03:53;;;;;;;;;;;22.00;27.50;;;;;;491508;240;1158;-69
2021/03/29 00:05:54;;;;;;;;;;;22.00;27.40;;;;;;491622;240;1218;-69
2021/03/29 00:07:55;;;;;;;;;;;22.00;27.40;;;;;;491603;240;1090;-69
2021/03/29 00:09:56;;;;;;;;;;;22.00;27.40;;;;;;491585;240;980;-69
2021/03/29 00:11:58;;;;;;;;;;;22.10;27.40;;;;;;491665;240;1217;-69
2021/03/29 00:13:59;;;;;;;;;;;22.00;27.40;;;;;;491541;240;1143;-69
2021/03/29 00:16:00;;;;;;;;;;;22.10;27.40;;;;;;491511;240;1492;-69
2021/03/29 00:18:02;;;;;;;;;;;22.20;27.30;;;;;;491475;240;2133;-69
2021/03/29 00:20:03;;;;;;;;;;;22.20;27.30;;;;;;491495;240;1208;-69
2021/03/29 00:22:04;;;;;;;;;;;22.10;27.30;;;;;;491428;240;1170;-69
2021/03/29 00:24:05;;;;;;;;;;;22.10;27.30;;;;;;491535;240;1044;-69
2021/03/29 00:26:07;;;;;;;;;;;22.20;27.30;;;;;;491587;240;1007;-69
2021/03/29 00:28:08;;;;;;;;;;;22.10;27.30;;;;;;491484;240;1159;-69
2021/03/29 00:30:09;;;;;;;;;;;22.10;27.30;;;;;;491600;240;950;-69
2021/03/29 00:32:11;;;;;;;;;;;22.10;27.30;;;;;;491583;240;1199;-69
2021/03/29 00:34:12;;;;;;;;;;;22.10;27.40;;;;;;491538;240;1061;-69
2021/03/29 00:36:13;;;;;;;;;;;22.00;27.40;;;;;;491644;240;1145;-70
2021/03/29 00:38:14;;;;;;;;;;;22.10;27.40;;;;;;491591;240;2188;-69
2021/03/29 00:40:17;;;;;;;;;;;22.00;27.40;;;;;;491480;240;1200;-69
2021/03/29 00:42:17;;;;;;;;;;;22.00;27.50;;;;;;491426;240;1356;-69
2021/03/29 00:44:18;;;;;;;;;;;22.00;27.50;;;;;;491452;240;1188;-69
2021/03/29 00:46:20;;;;;;;;;;;22.00;27.50;;;;;;491474;240;1077;-69
2021/03/29 00:48:21;;;;;;;;;;;22.00;27.50;;;;;;491500;240;1087;-69
2021/03/29 00:50:22;;;;;;;;;;;22.00;27.50;;;;;;491490;240;1091;-69
2021/03/29 00:52:23;;;;;;;;;;;22.00;27.50;;;;;;491577;240;1116;-69
2021/03/29 00:54:26;;;;;;;;;;;21.90;27.50;;;;;;491624;240;1048;-69
2021/03/29 00:56:26;;;;;;;;;;;21.90;27.50;;;;;;491543;240;1517;-69
2021/03/29 00:58:28;;;;;;;;;;;21.80;27.60;;;;;;491652;240;2184;-69
2021/03/29 01:00:29;;;;;;;;;;;21.80;27.70;;;;;;491622;240;1395;-69
2021/03/29 01:02:30;;;;;;;;;;;22.00;27.50;;;;;;491561;240;1154;-69
2021/03/29 01:04:31;;;;;;;;;;;21.90;27.60;;;;;;491544;240;1324;-69
2021/03/29 01:06:33;;;;;;;;;;;21.80;27.60;;;;;;491502;240;1179;-69
2021/03/29 01:08:34;;;;;;;;;;;21.80;27.70;;;;;;491500;240;1074;-69
2021/03/29 01:10:35;;;;;;;;;;;21.90;27.70;;;;;;491493;240;1046;-69
2021/03/29 01:12:36;;;;;;;;;;;21.80;27.60;;;;;;491462;240;1092;-69
2021/03/29 01:14:38;;;;;;;;;;;21.80;27.70;;;;;;491505;240;1191;-69
2021/03/29 01:16:39;;;;;;;;;;;21.80;27.70;;;;;;491474;240;1243;-69
2021/03/29 01:18:40;;;;;;;;;;;21.80;27.60;;;;;;491599;240;2136;-69
2021/03/29 01:20:42;;;;;;;;;;;21.80;27.70;;;;;;491572;240;1243;-69
2021/03/29 01:22:43;;;;;;;;;;;21.80;27.70;;;;;;491610;240;1084;-69
2021/03/29 01:24:44;;;;;;;;;;;21.70;27.70;;;;;;491815;240;1070;-69
2021/03/29 01:26:45;;;;;;;;;;;21.70;27.80;;;;;;491515;240;1139;-69
2021/03/29 01:28:47;;;;;;;;;;;21.70;27.80;;;;;;491596;240;1159;-69
2021/03/29 01:30:48;;;;;;;;;;;21.70;27.80;;;;;;491576;240;1172;-69
2021/03/29 01:32:49;;;;;;;;;;;21.70;27.80;;;;;;491431;240;1021;-69
2021/03/29 01:34:51;;;;;;;;;;;21.70;27.80;;;;;;491525;240;1048;-69
2021/03/29 01:36:52;;;;;;;;;;;21.60;27.80;;;;;;491530;242;1357;-69
2021/03/29 01:38:53;;;;;;;;;;;21.60;27.80;;;;;;491437;240;2562;-69
2021/03/29 01:40:55;;;;;;;;;;;21.60;27.80;;;;;;491488;240;1076;-69
2021/03/29 01:42:56;;;;;;;;;;;21.50;27.80;;;;;;491551;240;1220;-69
2021/03/29 01:44:57;;;;;;;;;;;21.60;27.80;;;;;;491593;240;1182;-69
2021/03/29 01:46:58;;;;;;;;;;;21.50;27.80;;;;;;491458;240;1166;-69
2021/03/29 01:49:00;;;;;;;;;;;21.50;27.80;;;;;;491603;240;1043;-69
2021/03/29 01:51:01;;;;;;;;;;;21.60;27.80;;;;;;491541;240;1163;-69
2021/03/29 01:53:02;;;;;;;;;;;21.60;27.80;;;;;;491616;240;1082;-69
2021/03/29 01:55:04;;;;;;;;;;;21.50;27.80;;;;;;491647;240;1032;-69
2021/03/29 01:57:05;;;;;;;;;;;21.50;27.80;;;;;;491608;240;1068;-69
2021/03/29 01:59:06;;;;;;;;;;;21.50;27.90;;;;;;491453;240;2167;-69
2021/03/29 02:01:08;;;;;;;;;;;21.50;27.90;;;;;;491477;240;1045;-69
2021/03/29 02:03:09;;;;;;;;;;;21.50;27.70;;;;;;491520;240;957;-69
2021/03/29 02:05:10;;;;;;;;;;;21.50;27.80;;;;;;491485;240;955;-69
2021/03/29 02:07:12;;;;;;;;;;;21.50;27.80;;;;;;491513;240;1055;-69
2021/03/29 02:09:13;;;;;;;;;;;21.50;27.90;;;;;;491444;240;968;-69
2021/03/29 02:11:14;;;;;;;;;;;21.50;27.80;;;;;;491599;240;1082;-69
2021/03/29 02:13:16;;;;;;;;;;;21.50;27.90;;;;;;491627;240;973;-69
2021/03/29 02:15:17;;;;;;;;;;;21.50;27.90;;;;;;491622;240;1224;-69
2021/03/29 02:17:18;;;;;;;;;;;21.40;27.90;;;;;;491568;240;1079;-69
2021/03/29 02:19:20;;;;;;;;;;;21.40;27.90;;;;;;491530;240;2141;-69
2021/03/29 02:21:21;;;;;;;;;;;21.40;28.00;;;;;;491409;240;1048;-69
2021/03/29 02:23:22;;;;;;;;;;;21.40;28.00;;;;;;491593;240;1127;-69
2021/03/29 02:25:23;;;;;;;;;;;21.40;28.00;;;;;;491483;240;1149;-69
2021/03/29 02:27:25;;;;;;;;;;;21.30;28.00;;;;;;491479;240;983;-69
2021/03/29 02:29:27;;;;;;;;;;;21.30;28.00;;;;;;491462;240;1191;-69
2021/03/29 02:31:28;;;;;;;;;;;21.30;28.10;;;;;;491474;240;1340;-69
2021/03/29 02:33:30;;;;;;;;;;;21.30;28.10;;;;;;491454;240;1106;-69
2021/03/29 02:35:31;;;;;;;;;;;21.30;28.10;;;;;;491565;240;1009;-69
2021/03/29 02:37:32;;;;;;;;;;;21.30;28.10;;;;;;491690;240;1217;-69
2021/03/29 02:39:33;;;;;;;;;;;21.20;28.10;;;;;;491588;240;2121;-69
2021/03/29 02:41:35;;;;;;;;;;;21.20;28.10;;;;;;491621;240;1130;-70
2021/03/29 02:43:36;;;;;;;;;;;21.20;28.10;;;;;;491647;240;978;-69
2021/03/29 02:45:37;;;;;;;;;;;21.20;28.20;;;;;;491643;240;1206;-69
2021/03/29 02:47:39;;;;;;;;;;;21.10;28.10;;;;;;491581;240;1165;-69
2021/03/29 02:49:40;;;;;;;;;;;21.10;28.20;;;;;;491572;240;957;-69
2021/03/29 02:51:41;;;;;;;;;;;21.00;28.20;;;;;;491536;240;1172;-69
2021/03/29 02:53:42;;;;;;;;;;;21.00;28.20;;;;;;491513;240;988;-69
2021/03/29 02:55:44;;;;;;;;;;;21.00;28.20;;;;;;491563;240;1072;-69
2021/03/29 02:57:45;;;;;;;;;;;21.00;28.30;;;;;;491534;240;1051;-69
2021/03/29 02:59:46;;;;;;;;;;;21.00;28.30;;;;;;491445;240;2183;-69
2021/03/29 03:01:48;;;;;;;;;;;21.00;28.30;;;;;;491558;240;995;-69
2021/03/29 03:03:49;;;;;;;;;;;21.00;28.20;;;;;;491675;240;993;-69
2021/03/29 03:05:50;;;;;;;;;;;20.90;28.30;;;;;;491608;240;1001;-69
2021/03/29 03:07:51;;;;;;;;;;;20.90;28.30;;;;;;491560;240;1037;-69
2021/03/29 03:09:53;;;;;;;;;;;20.80;28.30;;;;;;491552;240;1026;-69
2021/03/29 03:11:54;;;;;;;;;;;20.80;28.40;;;;;;491518;240;1037;-69
2021/03/29 03:13:55;;;;;;;;;;;20.80;28.40;;;;;;491714;240;981;-69
2021/03/29 03:15:57;;;;;;;;;;;20.80;28.40;;;;;;491661;240;1150;-69
2021/03/29 03:17:58;;;;;;;;;;;20.80;28.40;;;;;;491558;240;1095;-69
2021/03/29 03:19:59;;;;;;;;;;;20.70;28.40;;;;;;491553;240;1093;-69
2021/03/29 03:22:00;;;;;;;;;;;20.60;28.40;;;;;;491494;240;1015;-69
2021/03/29 03:24:02;;;;;;;;;;;20.70;28.50;;;;;;491533;240;948;-69
2021/03/29 03:26:03;;;;;;;;;;;20.60;28.50;;;;;;491520;240;965;-69
2021/03/29 03:28:04;;;;;;;;;;;20.60;28.50;;;;;;491513;240;1360;-69
2021/03/29 03:30:06;;;;;;;;;;;20.60;28.60;;;;;;491609;240;1148;-70
2021/03/29 03:32:07;;;;;;;;;;;20.50;28.60;;;;;;491525;240;1280;-70
2021/03/29 03:34:08;;;;;;;;;;;20.50;28.60;;;;;;491569;240;959;-69
2021/03/29 03:36:09;;;;;;;;;;;20.50;28.60;;;;;;491604;240;952;-69
2021/03/29 03:38:11;;;;;;;;;;;20.50;28.60;;;;;;491562;240;2183;-69
2021/03/29 03:40:12;;;;;;;;;;;20.50;28.60;;;;;;491561;240;1127;-69
2021/03/29 03:42:13;;;;;;;;;;;20.40;28.60;;;;;;491453;240;998;-69
2021/03/29 03:44:14;;;;;;;;;;;20.50;28.70;;;;;;491460;240;1158;-69
2021/03/29 03:46:16;;;;;;;;;;;20.40;28.70;;;;;;491487;240;1208;-69
2021/03/29 03:48:17;;;;;;;;;;;20.40;28.70;;;;;;491478;240;1040;-69
2021/03/29 03:50:18;;;;;;;;;;;20.30;28.70;;;;;;491497;240;1038;-69
2021/03/29 03:52:20;;;;;;;;;;;20.30;28.70;;;;;;491482;240;1219;-69
2021/03/29 03:54:21;;;;;;;;;;;20.30;28.80;;;;;;491589;240;1081;-69
2021/03/29 03:56:22;;;;;;;;;;;20.30;28.80;;;;;;491508;240;1183;-69
2021/03/29 03:58:23;;;;;;;;;;;20.20;28.80;;;;;;491535;240;2187;-69
2021/03/29 04:00:25;;;;;;;;;;;20.20;28.80;;;;;;491600;240;1155;-69
2021/03/29 04:02:26;;;;;;;;;;;20.40;28.80;;;;;;491464;240;1193;-69
2021/03/29 04:04:28;;;;;;;;;;;20.30;28.70;;;;;;491551;240;931;-69
2021/03/29 04:06:29;;;;;;;;;;;20.30;28.80;;;;;;491517;240;1334;-69
2021/03/29 04:08:30;;;;;;;;;;;20.20;28.80;;;;;;491411;240;1048;-68
2021/03/29 04:10:40;;;;;;;;;;;20.20;28.90;;;;;;491490;240;1046;-68
2021/03/29 04:12:38;;;;;;;;;;;20.10;28.90;;;;;;491379;241;1354;-68
2021/03/29 04:14:39;;;;;;;;;;;20.10;28.90;;;;;;491441;240;1027;-68
2021/03/29 04:16:41;;;;;;;;;;;20.10;29.00;;;;;;491449;240;1235;-69
2021/03/29 04:18:42;;;;;;;;;;;20.10;29.00;;;;;;491520;240;2192;-69
2021/03/29 04:20:43;;;;;;;;;;;20.10;29.00;;;;;;491575;240;1102;-69
2021/03/29 04:22:44;;;;;;;;;;;20.10;29.10;;;;;;491516;240;1078;-69
2021/03/29 04:24:46;;;;;;;;;;;20.00;29.10;;;;;;491633;240;1059;-69
2021/03/29 04:26:47;;;;;;;;;;;20.00;29.10;;;;;;491560;240;1080;-69
2021/03/29 04:28:48;;;;;;;;;;;20.00;29.10;;;;;;491477;240;1070;-69
2021/03/29 04:30:50;;;;;;;;;;;20.00;29.20;;;;;;491535;240;1206;-69
2021/03/29 04:32:52;;;;;;;;;;;20.00;29.10;;;;;;491475;240;1067;-69
2021/03/29 04:34:53;;;;;;;;;;;20.00;29.10;;;;;;491377;240;1109;-69
2021/03/29 04:36:54;;;;;;;;;;;20.00;29.10;;;;;;491375;240;1021;-69
2021/03/29 04:38:56;;;;;;;;;;;20.00;29.20;;;;;;491442;240;2149;-69
2021/03/29 04:40:57;;;;;;;;;;;20.00;29.20;;;;;;491476;240;1009;-69
2021/03/29 04:42:58;;;;;;;;;;;20.00;29.20;;;;;;491361;240;1103;-69
2021/03/29 04:45:00;;;;;;;;;;;20.00;29.20;;;;;;491392;240;1080;-69
2021/03/29 04:47:01;;;;;;;;;;;20.00;29.20;;;;;;491317;240;1164;-69
2021/03/29 04:49:02;;;;;;;;;;;20.00;29.10;;;;;;491542;240;1024;-69
2021/03/29 04:51:03;;;;;;;;;;;20.00;29.10;;;;;;491484;240;1413;-69
2021/03/29 04:53:05;;;;;;;;;;;20.00;29.10;;;;;;491444;240;1035;-69
2021/03/29 04:55:06;;;;;;;;;;;20.00;29.10;;;;;;491365;240;1067;-69
2021/03/29 04:57:07;;;;;;;;;;;20.00;29.00;;;;;;491305;240;1292;-69
2021/03/29 04:59:09;;;;;;;;;;;20.00;29.00;;;;;;491287;240;2195;-69
2021/03/29 05:01:10;;;;;;;;;;;20.00;29.00;;;;;;491229;240;1157;-69
2021/03/29 05:03:11;;;;;;;;;;;20.10;29.00;;;;;;491212;240;1133;-69
2021/03/29 05:05:12;;;;;;;;;;;20.10;29.00;;;;;;491219;240;1042;-69
2021/03/29 05:07:14;;;;;;;;;;;20.10;29.00;;;;;;491230;240;1232;-69
2021/03/29 05:09:15;;;;;;;;;;;20.10;29.00;;;;;;491244;240;1028;-69
2021/03/29 05:11:16;;;;;;;;;;;20.10;29.00;;;;;;491210;240;1237;-69
2021/03/29 05:13:18;;;;;;;;;;;20.00;29.10;;;;;;491375;240;1037;-69
2021/03/29 05:15:19;;;;;;;;;;;20.00;29.00;;;;;;491357;240;1023;-69
2021/03/29 05:17:20;;;;;;;;;;;20.00;29.10;;;;;;491386;240;1336;-69
2021/03/29 05:19:21;;;;;;;;;;;20.00;29.10;;;;;;491461;240;2180;-69
2021/03/29 05:21:23;;;;;;;;;;;20.00;29.00;;;;;;491411;240;1177;-69
2021/03/29 05:23:24;;;;;;;;;;;20.10;29.00;;;;;;491408;240;1055;-69
2021/03/29 05:25:25;;;;;;;;;;;20.10;29.00;;;;;;491389;240;987;-69
2021/03/29 05:27:26;;;;;;;;;;;20.10;29.00;;;;;;491287;240;1207;-69
2021/03/29 05:29:28;;;;;;;;;;;20.10;28.90;;;;;;491136;240;1142;-69
2021/03/29 05:31:29;;;;;;;;;;;20.10;28.90;;;;;;491206;240;1195;-69
2021/03/29 05:33:30;;;;;;;;;;;20.10;28.90;;;;;;491134;240;1030;-69
2021/03/29 05:35:32;;;;;;;;;;;20.10;28.80;;;;;;491100;240;1046;-69
2021/03/29 05:37:33;;;;;;;;;;;20.10;28.80;;;;;;491211;240;1144;-69
2021/03/29 05:39:34;;;;;;;;;;;20.10;28.80;;;;;;491347;240;2153;-69
2021/03/29 05:41:36;;;;;;;;;;;20.10;28.80;;;;;;491335;240;1298;-69
2021/03/29 05:43:37;;;;;;;;;;;20.10;28.80;;;;;;491275;240;1114;-69
2021/03/29 05:45:38;;;;;;;;;;;20.20;28.70;;;;;;491317;240;1024;-69
2021/03/29 05:47:40;;;;;;;;;;;20.10;28.60;;;;;;491246;240;1333;-69
2021/03/29 05:49:41;;;;;;;;;;;20.10;28.60;;;;;;491208;240;1077;-69
2021/03/29 05:51:42;;;;;;;;;;;20.20;28.60;;;;;;491144;240;1229;-69
2021/03/29 05:53:43;;;;;;;;;;;20.10;28.60;;;;;;491226;240;1043;-69
2021/03/29 05:55:47;;;;;;;;;;;20.20;28.60;;;;;;491246;240;1224;-69
2021/03/29 05:58:06;;;;;;;;;;;20.20;28.60;;;;;;491225;240;1363;-69
2021/03/29 05:59:55;;;;;;;;;;;20.20;28.60;;;;;;490941;242;2200;-69
2021/03/29 06:01:56;;;;;;;;;;;20.20;28.50;;;;;;491115;240;1242;-69
2021/03/29 06:03:58;;;;;;;;;;;20.30;28.40;;;;;;491238;240;1088;-69
2021/03/29 06:05:59;;;;;;;;;;;20.30;28.40;;;;;;491168;240;1354;-69
2021/03/29 06:08:01;;;;;;;;;;;20.30;28.40;;;;;;491217;240;1126;-69
2021/03/29 06:10:02;;;;;;;;;;;20.20;28.40;;;;;;491201;240;1069;-69
2021/03/29 06:12:03;;;;;;;;;;;20.30;28.40;;;;;;491158;240;1075;-69
2021/03/29 06:14:04;;;;;;;;;;;20.30;28.40;;;;;;490903;240;1076;-69
2021/03/29 06:16:06;;;;;;;;;;;20.40;28.30;;;;;;491024;240;1057;-69
2021/03/29 06:18:07;;;;;;;;;;;20.40;28.30;;;;;;491030;240;1155;-69
2021/03/29 06:20:08;;;;;;;;;;;20.40;28.20;;;;;;490957;240;2140;-69
2021/03/29 06:22:10;;;;;;;;;;;20.40;28.20;;;;;;490857;240;1094;-69
2021/03/29 06:24:11;;;;;;;;;;;20.50;28.00;;;;;;491032;240;1113;-69
2021/03/29 06:26:12;;;;;;;;;;;20.40;28.10;;;;;;491023;240;1304;-69
2021/03/29 06:28:14;;;;;;;;;;;20.40;28.20;;;;;;491081;240;1050;-69
2021/03/29 06:30:15;;;;;;;;;;;20.40;28.20;;;;;;491086;240;1105;-69
2021/03/29 06:32:16;;;;;;;;;;;20.30;28.20;;;;;;491104;240;1143;-69
2021/03/29 06:34:18;;;;;;;;;;;20.20;28.30;;;;;;490881;240;1071;-69
2021/03/29 06:36:19;;;;;;;;;;;20.00;28.40;;;;;;490820;240;1134;-69
2021/03/29 06:38:20;;;;;;;;;;;20.00;28.60;;;;;;490740;240;1087;-69
2021/03/29 06:40:22;;;;;;;;;;;19.80;28.60;;;;;;490991;240;2176;-69
2021/03/29 06:42:23;;;;;;;;;;;19.80;28.70;;;;;;490996;240;1407;-69
2021/03/29 06:44:24;;;;;;;;;;;19.70;28.70;;;;;;490793;240;1304;-69
2021/03/29 06:46:25;;;;;;;;;;;19.80;28.80;;;;;;490856;240;1237;-69
2021/03/29 06:48:27;;;;;;;;;;;19.80;28.70;;;;;;490910;240;1176;-69
2021/03/29 06:50:28;;;;;;;;;;;19.90;28.70;;;;;;490746;240;1084;-69
2021/03/29 06:52:29;;;;;;;;;;;20.00;28.70;;;;;;490647;240;1190;-69
2021/03/29 06:54:31;;;;;;;;;;;20.00;28.60;;;;;;490932;240;1098;-69
2021/03/29 06:56:32;;;;;;;;;;;20.00;28.60;;;;;;490957;240;1368;-69
2021/03/29 06:58:33;;;;;;;;;;;20.00;28.60;;;;;;490868;240;1039;-69
2021/03/29 07:00:35;;;;;;;;;;;20.00;28.70;;;;;;490891;240;2184;-69
2021/03/29 07:02:36;;;;;;;;;;;20.00;28.70;;;;;;490817;240;1163;-69
2021/03/29 07:04:38;;;;;;;;;;;20.00;28.80;;;;;;490675;240;1116;-69
2021/03/29 07:06:39;;;;;;;;;;;20.00;28.80;;;;;;490709;240;1100;-69
2021/03/29 07:08:40;;;;;;;;;;;20.10;28.80;;;;;;490751;240;1055;-69
2021/03/29 07:10:41;;;;;;;;;;;20.10;28.80;;;;;;490749;240;1073;-69
2021/03/29 07:12:43;;;;;;;;;;;20.10;28.80;;;;;;490877;240;1143;-69
2021/03/29 07:14:44;;;;;;;;;;;20.10;28.70;;;;;;490867;240;1056;-69
2021/03/29 07:16:45;;;;;;;;;;;20.10;28.80;;;;;;490839;240;1251;-69
2021/03/29 07:18:46;;;;;;;;;;;20.10;28.80;;;;;;490774;240;1214;-69
2021/03/29 07:20:48;;;;;;;;;;;20.10;28.80;;;;;;490667;240;2183;-69
2021/03/29 07:22:49;;;;;;;;;;;20.10;28.80;;;;;;490638;240;1115;-69
2021/03/29 07:24:50;;;;;;;;;;;20.10;28.80;;;;;;490725;240;1054;-69
2021/03/29 07:26:52;;;;;;;;;;;20.10;28.90;;;;;;490697;240;1418;-69
2021/03/29 07:28:53;;;;;;;;;;;20.10;28.80;;;;;;490855;240;1080;-69
2021/03/29 07:30:59;;;;;;;;;;;20.20;28.90;;;;;;490780;240;1383;-69
2021/03/29 07:32:57;;;;;;;;;;;20.20;28.80;;;;;;490746;242;1377;-69
2021/03/29 07:34:57;;;;;;;;;;;20.30;28.80;;;;;;490831;241;1345;-69
2021/03/29 07:36:59;;;;;;;;;;;20.30;28.70;;;;;;490863;240;1082;-69
2021/03/29 07:39:00;;;;;;;;;;;20.40;28.70;;;;;;490710;240;1051;-69
2021/03/29 07:41:01;;;;;;;;;;;20.40;28.60;;;;;;490799;240;2193;-69
2021/03/29 07:43:03;;;;;;;;;;;20.40;28.60;;;;;;490336;240;1079;-68
2021/03/29 07:45:04;;;;;;;;;;;20.50;28.60;;;;;;490785;240;1013;-68
2021/03/29 07:47:05;;;;;;;;;;;20.50;28.60;;;;;;490806;240;1247;-68
2021/03/29 07:49:07;;;;;;;;;;;20.50;28.60;;;;;;490828;240;1175;-68
2021/03/29 07:51:08;;;;;;;;;;;20.50;28.60;;;;;;490867;240;1407;-68
2021/03/29 07:53:15;;;;;;;;;;;20.50;28.60;;;;;;490880;240;1166;-68
2021/03/29 07:55:10;;;;;;;;;;;20.50;28.60;;;;;;490809;241;1285;-68
2021/03/29 07:57:12;;;;;;;;;;;20.50;28.60;;;;;;490913;240;1151;-68
2021/03/29 07:59:15;;;;;;;;;;;20.50;28.70;;;;;;490756;240;1130;-68
2021/03/29 08:01:16;;;;;;;;;;;20.50;28.60;;;;;;490591;241;2212;-69
2021/03/29 08:03:16;;;;;;;;;;;20.50;28.70;;;;;;490658;242;1359;-69
2021/03/29 08:05:17;;;;;;;;;;;20.50;28.60;;;;;;490687;240;1134;-69
2021/03/29 08:07:18;;;;;;;;;;;20.50;28.60;;;;;;490606;240;1083;-69
2021/03/29 08:09:20;;;;;;;;;;;20.60;28.70;;;;;;490662;240;1082;-69
2021/03/29 08:11:22;;;;;;;;;;;20.60;28.60;;;;;;490744;240;1195;-69
2021/03/29 08:13:22;;;;;;;;;;;20.60;28.50;;;;;;490782;241;1447;-69
2021/03/29 08:15:23;;;;;;;;;;;20.60;28.50;;;;;;490719;240;1113;-69
2021/03/29 08:17:25;;;;;;;;;;;20.60;28.50;;;;;;490792;240;1344;-68
2021/03/29 08:19:29;;;;;;;;;;;20.60;28.60;;;;;;490798;240;1135;-68
2021/03/29 08:21:27;;;;;;;;;;;20.60;28.50;;;;;;490527;242;2188;-68
2021/03/29 08:23:28;;;;;;;;;;;20.60;28.60;;;;;;490690;240;1066;-68
2021/03/29 08:25:30;;;;;;;;;;;20.70;28.50;;;;;;490558;240;1077;-69
2021/03/29 08:27:31;;;;;;;;;;;20.70;28.50;;;;;;490796;240;1183;-68
2021/03/29 08:29:33;;;;;;;;;;;20.70;28.50;;;;;;490724;240;1098;-69
2021/03/29 08:31:34;;;;;;;;;;;20.70;28.50;;;;;;490414;240;1312;-69
2021/03/29 08:33:35;;;;;;;;;;;20.70;28.50;;;;;;490580;240;1261;-69
2021/03/29 08:35:38;;;;;;;;;;;20.70;28.50;;;;;;490638;240;1564;-69
2021/03/29 08:37:40;;;;;;;;;;;20.70;28.40;;;;;;490741;240;1269;-69
2021/03/29 08:39:40;;;;;;;;;;;20.70;28.50;;;;;;490603;240;1346;-68
2021/03/29 08:41:42;;;;;;;;;;;20.70;28.50;;;;;;490595;240;2138;-68
2021/03/29 08:43:43;;;;;;;;;;;20.70;28.50;;;;;;490759;240;1106;-68
2021/03/29 08:45:45;;;;;;;;;;;20.70;28.50;;;;;;489919;240;1324;-68
2021/03/29 08:47:45;;;;;;;;;;;20.70;28.50;;;;;;490859;241;1330;-68
2021/03/29 08:49:47;;;;;;;;;;;20.80;28.50;;;;;;490807;240;1254;-68
2021/03/29 08:51:48;;;;;;;;;;;20.70;28.50;;;;;;490868;240;1198;-68
2021/03/29 08:53:49;;;;;;;;;;;20.70;28.50;;;;;;490702;240;1016;-68
2021/03/29 08:55:51;;;;;;;;;;;20.70;28.50;;;;;;490592;240;1070;-68
2021/03/29 08:57:54;;;;;;;;;;;20.70;28.50;;;;;;490493;240;1186;-68
2021/03/29 08:59:54;;;;;;;;;;;20.70;28.60;;;;;;490085;242;2141;-68
2021/03/29 09:01:55;;;;;;;;;;;20.80;28.60;;;;;;490680;240;1122;-68
2021/03/29 09:03:56;;;;;;;;;;;20.80;28.50;;;;;;490688;240;1224;-68
2021/03/29 09:05:57;;;;;;;;;;;20.80;28.40;;;;;;490845;240;1089;-68
2021/03/29 09:07:59;;;;;;;;;;;20.80;28.40;;;;;;490865;240;1110;-68
2021/03/29 09:10:00;;;;;;;;;;;20.80;28.40;;;;;;490640;240;1142;-68
2021/03/29 09:12:01;;;;;;;;;;;20.80;28.40;;;;;;490706;240;1093;-69
2021/03/29 09:14:03;;;;;;;;;;;20.80;28.40;;;;;;490659;240;1144;-68
2021/03/29 09:16:04;;;;;;;;;;;20.80;28.40;;;;;;490551;240;1158;-68
2021/03/29 09:18:05;;;;;;;;;;;20.80;28.40;;;;;;490655;240;1088;-69
2021/03/29 09:20:07;;;;;;;;;;;20.80;28.40;;;;;;490766;240;2204;-69
2021/03/29 09:22:09;;;;;;;;;;;20.80;28.40;;;;;;490731;240;1111;-69
2021/03/29 09:24:09;;;;;;;;;;;20.90;28.40;;;;;;490538;240;1271;-69
2021/03/29 09:26:11;;;;;;;;;;;20.80;28.30;;;;;;490471;240;1108;-69
2021/03/29 09:28:14;;;;;;;;;;;20.80;28.40;;;;;;490765;240;1211;-69
2021/03/29 09:30:13;;;;;;;;;;;20.80;28.40;;;;;;490386;241;1356;-69
2021/03/29 09:32:15;;;;;;;;;;;20.80;28.40;;;;;;490779;240;1105;-69
2021/03/29 09:34:16;;;;;;;;;;;20.80;28.40;;;;;;490620;240;1136;-69
2021/03/29 09:36:18;;;;;;;;;;;20.80;28.50;;;;;;490590;240;1098;-69
2021/03/29 09:38:19;;;;;;;;;;;20.80;28.50;;;;;;490980;240;1237;-69
2021/03/29 09:40:20;;;;;;;;;;;20.90;28.50;;;;;;491541;240;2389;-68
2021/03/29 09:42:22;;;;;;;;;;;21.00;28.40;;;;;;491041;240;1077;-69
2021/03/29 09:44:25;;;;;;;;;;;21.20;28.20;;;;;;490770;240;1014;-69
2021/03/29 09:46:26;;;;;;;;;;;21.40;28.00;;;;;;490513;240;1060;-69
2021/03/29 09:48:27;;;;;;;;;;;21.50;27.80;;;;;;490569;240;1272;-69
2021/03/29 09:50:29;;;;;;;;;;;21.60;27.70;;;;;;490616;240;1181;-69
2021/03/29 09:52:30;;;;;;;;;;;21.60;27.60;;;;;;490602;240;1235;-69
2021/03/29 09:54:32;;;;;;;;;;;21.70;27.60;;;;;;490747;240;1026;-69
2021/03/29 09:56:33;;;;;;;;;;;21.70;27.50;;;;;;490669;241;1395;-69
2021/03/29 09:58:36;;;;;;;;;;;21.80;27.50;;;;;;490732;240;1303;-69
2021/03/29 10:00:35;;;;;;;;;;;21.80;27.50;;;;;;490651;241;2183;-69
2021/03/29 10:02:37;;;;;;;;;;;21.80;27.40;;;;;;490765;240;1179;-69
2021/03/29 10:04:38;;;;;;;;;;;21.90;27.40;;;;;;490746;240;1141;-69
2021/03/29 10:06:39;;;;;;;;;;;21.90;27.30;;;;;;490787;240;1081;-69
2021/03/29 10:08:40;;;;;;;;;;;22.00;27.30;;;;;;490632;240;1078;-69
2021/03/29 10:10:42;;;;;;;;;;;22.00;27.30;;;;;;490672;240;1250;-69
2021/03/29 10:12:43;;;;;;;;;;;22.00;27.20;;;;;;490638;240;1110;-69
2021/03/29 10:14:45;;;;;;;;;;;22.10;27.30;;;;;;490652;240;1265;-69
2021/03/29 10:16:46;;;;;;;;;;;22.10;27.30;;;;;;490701;240;1094;-69
2021/03/29 10:18:47;;;;;;;;;;;22.20;27.20;;;;;;490680;240;1122;-69
2021/03/29 10:20:49;;;;;;;;;;;22.10;27.20;;;;;;490227;240;2172;-69
2021/03/29 10:22:50;;;;;;;;;;;22.20;27.30;;;;;;490268;240;1088;-69
2021/03/29 10:24:51;;;;;;;;;;;22.30;27.20;;;;;;490398;240;1113;-69
2021/03/29 10:26:52;;;;;;;;;;;22.20;27.10;;;;;;490566;240;1296;-69
2021/03/29 10:28:54;;;;;;;;;;;22.30;27.10;;;;;;490564;240;1081;-69
2021/03/29 10:30:55;;;;;;;;;;;22.30;27.10;;;;;;490624;240;1360;-69
2021/03/29 10:32:56;;;;;;;;;;;22.30;27.10;;;;;;490702;240;1075;-69
2021/03/29 10:34:57;;;;;;;;;;;22.20;27.00;;;;;;490696;240;1157;-69
2021/03/29 10:36:59;;;;;;;;;;;22.20;27.10;;;;;;490721;240;1264;-69
2021/03/29 10:39:00;;;;;;;;;;;22.20;27.10;;;;;;490519;240;1073;-69
2021/03/29 10:41:01;;;;;;;;;;;22.20;27.00;;;;;;490678;240;2168;-69
2021/03/29 10:43:03;;;;;;;;;;;22.20;27.00;;;;;;490743;240;1248;-69
2021/03/29 10:45:04;;;;;;;;;;;22.30;27.00;;;;;;490580;240;1058;-69
2021/03/29 10:47:05;;;;;;;;;;;22.30;27.00;;;;;;490597;240;1087;-69
2021/03/29 10:49:06;;;;;;;;;;;22.30;27.00;;;;;;490694;240;1031;-69
2021/03/29 10:51:08;;;;;;;;;;;22.30;27.00;;;;;;490708;240;1486;-69
2021/03/29 10:53:10;;;;;;;;;;;22.30;26.90;;;;;;491445;240;1211;-69
2021/03/29 10:55:10;;;;;;;;;;;22.40;26.90;;;;;;490624;240;1276;-69
2021/03/29 10:57:11;;;;;;;;;;;22.40;26.80;;;;;;490671;240;1222;-70
2021/03/29 10:59:13;;;;;;;;;;;22.30;26.80;;;;;;490688;240;1065;-69
2021/03/29 11:01:14;;;;;;;;;;;22.30;26.90;;;;;;490779;240;2183;-69
2021/03/29 11:03:15;;;;;;;;;;;22.30;26.80;;;;;;491070;240;1036;-69
2021/03/29 11:05:17;;;;;;;;;;;22.40;26.80;;;;;;490407;240;1154;-69
2021/03/29 11:07:18;;;;;;;;;;;22.50;26.80;;;;;;490820;240;1091;-69
2021/03/29 11:09:19;;;;;;;;;;;22.50;26.80;;;;;;491051;240;1217;-69
2021/03/29 11:11:21;;;;;;;;;;;22.40;26.70;;;;;;490643;240;1323;-69
2021/03/29 11:13:22;;;;;;;;;;;22.50;26.70;;;;;;489983;240;1161;-69
2021/03/29 11:15:23;;;;;;;;;;;22.40;26.70;;;;;;490515;240;1050;-69
2021/03/29 11:17:25;;;;;;;;;;;22.40;26.70;;;;;;490619;240;1082;-69
2021/03/29 11:19:26;;;;;;;;;;;22.50;26.60;;;;;;491059;240;1403;-69
2021/03/29 11:21:29;;;;;;;;;;;22.50;26.70;;;;;;490692;240;2172;-69
2021/03/29 11:23:29;;;;;;;;;;;22.40;26.70;;;;;;490675;241;1423;-69
2021/03/29 11:25:30;;;;;;;;;;;22.60;26.60;;;;;;490779;240;1134;-69
2021/03/29 11:27:31;;;;;;;;;;;22.50;26.70;;;;;;490698;240;1253;-69
2021/03/29 11:29:32;;;;;;;;;;;22.60;26.70;;;;;;490641;240;1087;-69
2021/03/29 11:31:35;;;;;;;;;;;22.60;26.70;;;;;;490536;240;1160;-69
2021/03/29 11:33:35;;;;;;;;;;;22.50;26.70;;;;;;490500;241;1435;-69
2021/03/29 11:35:36;;;;;;;;;;;22.60;26.60;;;;;;490526;240;1211;-69
2021/03/29 11:37:38;;;;;;;;;;;22.50;26.60;;;;;;491046;240;1277;-69
2021/03/29 11:39:39;;;;;;;;;;;22.50;26.60;;;;;;491599;240;1218;-69
2021/03/29 11:41:40;;;;;;;;;;;22.50;26.70;;;;;;490737;240;2148;-69
2021/03/29 11:43:41;;;;;;;;;;;22.50;26.70;;;;;;490729;240;1065;-69
2021/03/29 11:45:43;;;;;;;;;;;22.50;26.70;;;;;;490695;240;1122;-69
2021/03/29 11:47:44;;;;;;;;;;;22.50;26.70;;;;;;490718;240;1139;-69
2021/03/29 11:49:45;;;;;;;;;;;22.50;26.70;;;;;;490670;240;1143;-69
2021/03/29 11:51:47;;;;;;;;;;;22.50;26.60;;;;;;490727;240;1284;-69
2021/03/29 11:53:48;;;;;;;;;;;22.50;26.60;;;;;;490606;240;994;-69
2021/03/29 11:55:49;;;;;;;;;;;22.50;26.60;;;;;;490581;240;1183;-69
2021/03/29 11:57:50;;;;;;;;;;;22.50;26.60;;;;;;490644;240;1229;-69